sensor_id;sensor_type;location;lat;lon;timestamp;P1;durP1;ratioP1;P2;durP2;ratioP2
19193;SDS011;9729;52.296;13.260;2023-08-06T00:00:05;15.53;;;11.10;;
19193;SDS011;9729;52.296;13.260;2023-08-06T00:02:33;11.87;;;10.27;;
19193;SDS011;9729;52.296;13.260;2023-08-06T00:04:59;13.40;;;11.20;;
19193;SDS011;9729;52.296;13.260;2023-08-06T00:07:26;17.70;;;11.20;;
19193;SDS011;9729;52.296;13.260;2023-08-06T00:09:53;12.67;;;11.03;;
19193;SDS011;9729;52.296;13.260;2023-08-06T00:12:20;12.47;;;11.00;;
19193;SDS011;9729;52.296;13.260;2023-08-06T00:14:49;15.40;;;11.47;;
19193;SDS011;9729;52.296;13.260;2023-08-06T00:17:16;12.87;;;11.37;;
19193;SDS011;9729;52.296;13.260;2023-08-06T00:19:42;13.00;;;10.93;;
19193;SDS011;9729;52.296;13.260;2023-08-06T00:22:09;14.60;;;11.63;;
19193;SDS011;9729;52.296;13.260;2023-08-06T00:24:35;17.53;;;11.00;;
19193;SDS011;9729;52.296;13.260;2023-08-06T00:27:03;14.07;;;11.43;;
19193;SDS011;9729;52.296;13.260;2023-08-06T00:29:30;13.13;;;11.83;;
19193;SDS011;9729;52.296;13.260;2023-08-06T00:31:56;15.20;;;11.27;;
19193;SDS011;9729;52.296;13.260;2023-08-06T00:34:23;17.10;;;11.50;;
19193;SDS011;9729;52.296;13.260;2023-08-06T00:36:49;11.67;;;10.47;;
19193;SDS011;9729;52.296;13.260;2023-08-06T00:39:15;14.87;;;11.63;;
19193;SDS011;9729;52.296;13.260;2023-08-06T00:41:42;13.90;;;12.27;;
19193;SDS011;9729;52.296;13.260;2023-08-06T00:44:09;15.93;;;11.60;;
19193;SDS011;9729;52.296;13.260;2023-08-06T00:46:36;16.63;;;12.17;;
19193;SDS011;9729;52.296;13.260;2023-08-06T00:49:02;14.77;;;12.77;;
19193;SDS011;9729;52.296;13.260;2023-08-06T00:51:29;15.80;;;11.87;;
19193;SDS011;9729;52.296;13.260;2023-08-06T00:53:56;14.27;;;12.03;;
19193;SDS011;9729;52.296;13.260;2023-08-06T00:56:22;16.17;;;12.53;;
19193;SDS011;9729;52.296;13.260;2023-08-06T00:58:48;18.20;;;12.60;;
19193;SDS011;9729;52.296;13.260;2023-08-06T01:01:16;17.10;;;12.97;;
19193;SDS011;9729;52.296;13.260;2023-08-06T01:03:43;18.17;;;11.87;;
19193;SDS011;9729;52.296;13.260;2023-08-06T01:06:09;12.73;;;11.43;;
19193;SDS011;9729;52.296;13.260;2023-08-06T01:08:47;15.30;;;11.60;;
19193;SDS011;9729;52.296;13.260;2023-08-06T01:11:19;13.77;;;11.17;;
19193;SDS011;9729;52.296;13.260;2023-08-06T01:13:50;13.73;;;12.03;;
19193;SDS011;9729;52.296;13.260;2023-08-06T01:16:22;13.77;;;11.80;;
19193;SDS011;9729;52.296;13.260;2023-08-06T01:18:49;12.53;;;11.23;;
19193;SDS011;9729;52.296;13.260;2023-08-06T01:21:17;13.30;;;10.90;;
19193;SDS011;9729;52.296;13.260;2023-08-06T01:23:45;14.73;;;10.80;;
19193;SDS011;9729;52.296;13.260;2023-08-06T01:26:13;13.73;;;10.43;;
19193;SDS011;9729;52.296;13.260;2023-08-06T01:28:44;17.07;;;11.43;;
19193;SDS011;9729;52.296;13.260;2023-08-06T01:31:15;12.93;;;11.63;;
19193;SDS011;9729;52.296;13.260;2023-08-06T01:33:45;11.50;;;10.40;;
19193;SDS011;9729;52.296;13.260;2023-08-06T01:36:13;13.70;;;10.70;;
19193;SDS011;9729;52.296;13.260;2023-08-06T01:38:43;14.07;;;10.97;;
19193;SDS011;9729;52.296;13.260;2023-08-06T01:41:09;11.87;;;10.63;;
19193;SDS011;9729;52.296;13.260;2023-08-06T01:43:35;11.73;;;9.83;;
19193;SDS011;9729;52.296;13.260;2023-08-06T01:46:02;12.60;;;10.90;;
19193;SDS011;9729;52.296;13.260;2023-08-06T01:48:28;12.23;;;10.83;;
19193;SDS011;9729;52.296;13.260;2023-08-06T01:50:54;12.73;;;11.43;;
19193;SDS011;9729;52.296;13.260;2023-08-06T01:53:21;14.10;;;10.37;;
19193;SDS011;9729;52.296;13.260;2023-08-06T01:55:49;11.70;;;10.33;;
19193;SDS011;9729;52.296;13.260;2023-08-06T01:58:15;12.13;;;9.77;;
19193;SDS011;9729;52.296;13.260;2023-08-06T02:00:41;13.47;;;10.03;;
19193;SDS011;9729;52.296;13.260;2023-08-06T02:03:08;10.90;;;9.70;;
19193;SDS011;9729;52.296;13.260;2023-08-06T02:05:34;15.00;;;10.73;;
19193;SDS011;9729;52.296;13.260;2023-08-06T02:08:01;13.23;;;10.43;;
19193;SDS011;9729;52.296;13.260;2023-08-06T02:10:27;15.90;;;11.13;;
19193;SDS011;9729;52.296;13.260;2023-08-06T02:12:55;12.03;;;10.80;;
19193;SDS011;9729;52.296;13.260;2023-08-06T02:15:21;14.73;;;10.87;;
19193;SDS011;9729;52.296;13.260;2023-08-06T02:17:47;12.23;;;10.43;;
19193;SDS011;9729;52.296;13.260;2023-08-06T02:20:14;13.13;;;10.37;;
19193;SDS011;9729;52.296;13.260;2023-08-06T02:22:40;10.53;;;9.43;;
19193;SDS011;9729;52.296;13.260;2023-08-06T02:25:07;12.40;;;10.37;;
19193;SDS011;9729;52.296;13.260;2023-08-06T02:27:33;11.50;;;10.37;;
19193;SDS011;9729;52.296;13.260;2023-08-06T02:30:01;13.77;;;11.10;;
19193;SDS011;9729;52.296;13.260;2023-08-06T02:32:29;13.67;;;9.63;;
19193;SDS011;9729;52.296;13.260;2023-08-06T02:34:57;12.70;;;10.37;;
19193;SDS011;9729;52.296;13.260;2023-08-06T02:37:23;11.50;;;9.77;;
19193;SDS011;9729;52.296;13.260;2023-08-06T02:39:50;13.00;;;10.33;;
19193;SDS011;9729;52.296;13.260;2023-08-06T02:42:16;15.00;;;10.13;;
19193;SDS011;9729;52.296;13.260;2023-08-06T02:44:43;12.50;;;10.07;;
19193;SDS011;9729;52.296;13.260;2023-08-06T02:47:10;13.37;;;10.57;;
19193;SDS011;9729;52.296;13.260;2023-08-06T02:49:37;11.67;;;10.47;;
19193;SDS011;9729;52.296;13.260;2023-08-06T02:52:03;12.53;;;9.97;;
19193;SDS011;9729;52.296;13.260;2023-08-06T02:54:30;11.60;;;10.43;;
19193;SDS011;9729;52.296;13.260;2023-08-06T02:56:57;10.73;;;9.63;;
19193;SDS011;9729;52.296;13.260;2023-08-06T02:59:23;11.93;;;10.57;;
19193;SDS011;9729;52.296;13.260;2023-08-06T03:01:49;11.70;;;9.60;;
19193;SDS011;9729;52.296;13.260;2023-08-06T03:04:17;10.50;;;9.47;;
19193;SDS011;9729;52.296;13.260;2023-08-06T03:06:44;14.63;;;11.33;;
19193;SDS011;9729;52.296;13.260;2023-08-06T03:09:10;11.60;;;10.50;;
19193;SDS011;9729;52.296;13.260;2023-08-06T03:11:36;11.60;;;9.97;;
19193;SDS011;9729;52.296;13.260;2023-08-06T03:14:03;10.10;;;9.13;;
19193;SDS011;9729;52.296;13.260;2023-08-06T03:16:29;14.43;;;9.70;;
19193;SDS011;9729;52.296;13.260;2023-08-06T03:18:55;13.30;;;10.00;;
19193;SDS011;9729;52.296;13.260;2023-08-06T03:21:23;12.40;;;10.70;;
19193;SDS011;9729;52.296;13.260;2023-08-06T03:23:49;11.03;;;9.67;;
19193;SDS011;9729;52.296;13.260;2023-08-06T03:26:16;11.00;;;9.57;;
19193;SDS011;9729;52.296;13.260;2023-08-06T03:28:42;10.50;;;9.40;;
19193;SDS011;9729;52.296;13.260;2023-08-06T03:31:09;10.17;;;9.17;;
19193;SDS011;9729;52.296;13.260;2023-08-06T03:33:35;11.20;;;9.23;;
19193;SDS011;9729;52.296;13.260;2023-08-06T03:36:02;11.33;;;8.83;;
19193;SDS011;9729;52.296;13.260;2023-08-06T03:38:29;11.47;;;8.90;;
19193;SDS011;9729;52.296;13.260;2023-08-06T03:40:56;10.10;;;9.03;;
19193;SDS011;9729;52.296;13.260;2023-08-06T03:43:22;11.77;;;9.60;;
19193;SDS011;9729;52.296;13.260;2023-08-06T03:45:49;10.33;;;9.13;;
19193;SDS011;9729;52.296;13.260;2023-08-06T03:48:15;10.27;;;9.13;;
19193;SDS011;9729;52.296;13.260;2023-08-06T03:50:41;13.87;;;9.80;;
19193;SDS011;9729;52.296;13.260;2023-08-06T03:53:08;9.77;;;8.87;;
19193;SDS011;9729;52.296;13.260;2023-08-06T03:55:35;12.10;;;10.03;;
19193;SDS011;9729;52.296;13.260;2023-08-06T03:58:02;12.20;;;9.00;;
19193;SDS011;9729;52.296;13.260;2023-08-06T04:00:28;10.40;;;8.80;;
19193;SDS011;9729;52.296;13.260;2023-08-06T04:02:54;9.37;;;8.37;;
19193;SDS011;9729;52.296;13.260;2023-08-06T04:05:21;14.67;;;10.40;;
19193;SDS011;9729;52.296;13.260;2023-08-06T04:07:47;10.13;;;9.10;;
19193;SDS011;9729;52.296;13.260;2023-08-06T04:10:13;10.67;;;8.97;;
19193;SDS011;9729;52.296;13.260;2023-08-06T04:12:41;11.87;;;9.23;;
19193;SDS011;9729;52.296;13.260;2023-08-06T04:15:08;10.23;;;9.10;;
19193;SDS011;9729;52.296;13.260;2023-08-06T04:17:34;10.87;;;9.50;;
19193;SDS011;9729;52.296;13.260;2023-08-06T04:20:01;10.80;;;9.43;;
19193;SDS011;9729;52.296;13.260;2023-08-06T04:22:27;12.33;;;8.90;;
19193;SDS011;9729;52.296;13.260;2023-08-06T04:24:53;10.03;;;9.03;;
19193;SDS011;9729;52.296;13.260;2023-08-06T04:27:20;10.60;;;9.53;;
19193;SDS011;9729;52.296;13.260;2023-08-06T04:29:47;11.73;;;9.17;;
19193;SDS011;9729;52.296;13.260;2023-08-06T04:32:14;10.00;;;9.00;;
19193;SDS011;9729;52.296;13.260;2023-08-06T04:34:40;11.40;;;8.70;;
19193;SDS011;9729;52.296;13.260;2023-08-06T04:37:07;9.10;;;8.10;;
19193;SDS011;9729;52.296;13.260;2023-08-06T04:39:33;9.80;;;8.83;;
19193;SDS011;9729;52.296;13.260;2023-08-06T04:41:59;10.20;;;8.40;;
19193;SDS011;9729;52.296;13.260;2023-08-06T04:44:26;9.77;;;8.80;;
19193;SDS011;9729;52.296;13.260;2023-08-06T04:46:53;9.93;;;8.93;;
19193;SDS011;9729;52.296;13.260;2023-08-06T04:49:20;9.40;;;8.00;;
19193;SDS011;9729;52.296;13.260;2023-08-06T04:51:47;9.23;;;8.33;;
19193;SDS011;9729;52.296;13.260;2023-08-06T04:54:13;8.93;;;7.67;;
19193;SDS011;9729;52.296;13.260;2023-08-06T04:56:39;9.30;;;8.27;;
19193;SDS011;9729;52.296;13.260;2023-08-06T04:59:06;10.87;;;9.80;;
19193;SDS011;9729;52.296;13.260;2023-08-06T05:01:32;12.10;;;10.00;;
19193;SDS011;9729;52.296;13.260;2023-08-06T05:04:00;15.23;;;10.17;;
19193;SDS011;9729;52.296;13.260;2023-08-06T05:06:26;10.63;;;9.60;;
19193;SDS011;9729;52.296;13.260;2023-08-06T05:08:53;10.20;;;9.20;;
19193;SDS011;9729;52.296;13.260;2023-08-06T05:11:19;11.40;;;9.83;;
19193;SDS011;9729;52.296;13.260;2023-08-06T05:13:45;11.07;;;9.97;;
19193;SDS011;9729;52.296;13.260;2023-08-06T05:16:12;12.20;;;11.00;;
19193;SDS011;9729;52.296;13.260;2023-08-06T05:18:38;11.83;;;10.63;;
19193;SDS011;9729;52.296;13.260;2023-08-06T05:21:06;11.13;;;10.03;;
19193;SDS011;9729;52.296;13.260;2023-08-06T05:23:32;14.17;;;10.97;;
19193;SDS011;9729;52.296;13.260;2023-08-06T05:25:58;11.77;;;10.57;;
19193;SDS011;9729;52.296;13.260;2023-08-06T05:28:25;12.40;;;10.57;;
19193;SDS011;9729;52.296;13.260;2023-08-06T05:30:51;11.23;;;10.23;;
19193;SDS011;9729;52.296;13.260;2023-08-06T05:33:17;13.83;;;10.53;;
19193;SDS011;9729;52.296;13.260;2023-08-06T05:35:44;12.00;;;10.80;;
19193;SDS011;9729;52.296;13.260;2023-08-06T05:38:11;11.33;;;10.27;;
19193;SDS011;9729;52.296;13.260;2023-08-06T05:40:38;13.57;;;10.73;;
19193;SDS011;9729;52.296;13.260;2023-08-06T05:43:04;12.03;;;10.83;;
19193;SDS011;9729;52.296;13.260;2023-08-06T05:45:31;11.87;;;10.63;;
19193;SDS011;9729;52.296;13.260;2023-08-06T05:47:57;12.83;;;10.70;;
19193;SDS011;9729;52.296;13.260;2023-08-06T05:50:23;11.07;;;9.70;;
19193;SDS011;9729;52.296;13.260;2023-08-06T05:52:50;12.63;;;11.33;;
19193;SDS011;9729;52.296;13.260;2023-08-06T05:55:18;12.90;;;11.57;;
19193;SDS011;9729;52.296;13.260;2023-08-06T05:57:44;15.03;;;11.47;;
19193;SDS011;9729;52.296;13.260;2023-08-06T06:00:11;12.93;;;11.70;;
19193;SDS011;9729;52.296;13.260;2023-08-06T06:02:37;13.30;;;11.90;;
19193;SDS011;9729;52.296;13.260;2023-08-06T06:05:04;14.40;;;11.43;;
19193;SDS011;9729;52.296;13.260;2023-08-06T06:07:30;12.40;;;11.10;;
19193;SDS011;9729;52.296;13.260;2023-08-06T06:09:57;12.27;;;11.00;;
19193;SDS011;9729;52.296;13.260;2023-08-06T06:12:24;14.57;;;11.03;;
19193;SDS011;9729;52.296;13.260;2023-08-06T06:14:51;12.47;;;10.97;;
19193;SDS011;9729;52.296;13.260;2023-08-06T06:17:18;12.93;;;11.73;;
19193;SDS011;9729;52.296;13.260;2023-08-06T06:19:44;12.00;;;10.80;;
19193;SDS011;9729;52.296;13.260;2023-08-06T06:22:10;19.10;;;11.77;;
19193;SDS011;9729;52.296;13.260;2023-08-06T06:24:37;19.30;;;14.20;;
19193;SDS011;9729;52.296;13.260;2023-08-06T06:27:03;13.87;;;12.33;;
19193;SDS011;9729;52.296;13.260;2023-08-06T06:29:32;14.60;;;13.10;;
19193;SDS011;9729;52.296;13.260;2023-08-06T06:31:58;13.97;;;12.57;;
19193;SDS011;9729;52.296;13.260;2023-08-06T06:34:24;15.37;;;13.87;;
19193;SDS011;9729;52.296;13.260;2023-08-06T06:36:51;16.70;;;13.17;;
19193;SDS011;9729;52.296;13.260;2023-08-06T06:39:17;15.90;;;13.77;;
19193;SDS011;9729;52.296;13.260;2023-08-06T06:41:43;16.33;;;13.40;;
19193;SDS011;9729;52.296;13.260;2023-08-06T06:44:10;13.70;;;12.40;;
19193;SDS011;9729;52.296;13.260;2023-08-06T06:46:38;14.47;;;12.33;;
19193;SDS011;9729;52.296;13.260;2023-08-06T06:49:04;13.07;;;11.53;;
19193;SDS011;9729;52.296;13.260;2023-08-06T06:51:30;13.03;;;11.63;;
19193;SDS011;9729;52.296;13.260;2023-08-06T06:53:57;13.77;;;11.60;;
19193;SDS011;9729;52.296;13.260;2023-08-06T06:56:23;12.50;;;11.07;;
19193;SDS011;9729;52.296;13.260;2023-08-06T06:58:50;13.10;;;11.10;;
19193;SDS011;9729;52.296;13.260;2023-08-06T07:01:16;11.97;;;10.60;;
19193;SDS011;9729;52.296;13.260;2023-08-06T07:03:44;11.67;;;10.20;;
19193;SDS011;9729;52.296;13.260;2023-08-06T07:06:10;13.27;;;11.07;;
19193;SDS011;9729;52.296;13.260;2023-08-06T07:08:37;12.03;;;10.63;;
19193;SDS011;9729;52.296;13.260;2023-08-06T07:11:04;12.23;;;11.07;;
19193;SDS011;9729;52.296;13.260;2023-08-06T07:13:31;11.90;;;10.70;;
19193;SDS011;9729;52.296;13.260;2023-08-06T07:15:58;13.80;;;11.50;;
19193;SDS011;9729;52.296;13.260;2023-08-06T07:18:24;11.87;;;10.67;;
19193;SDS011;9729;52.296;13.260;2023-08-06T07:20:53;11.97;;;10.27;;
19193;SDS011;9729;52.296;13.260;2023-08-06T07:23:20;12.83;;;11.50;;
19193;SDS011;9729;52.296;13.260;2023-08-06T07:25:47;13.20;;;11.77;;
19193;SDS011;9729;52.296;13.260;2023-08-06T07:28:13;13.40;;;11.77;;
19193;SDS011;9729;52.296;13.260;2023-08-06T07:30:40;12.20;;;11.00;;
19193;SDS011;9729;52.296;13.260;2023-08-06T07:33:07;11.33;;;10.20;;
19193;SDS011;9729;52.296;13.260;2023-08-06T07:35:33;14.30;;;11.43;;
19193;SDS011;9729;52.296;13.260;2023-08-06T07:38:03;11.70;;;10.47;;
19193;SDS011;9729;52.296;13.260;2023-08-06T07:40:29;13.27;;;11.07;;
19193;SDS011;9729;52.296;13.260;2023-08-06T07:42:56;14.83;;;10.43;;
19193;SDS011;9729;52.296;13.260;2023-08-06T07:45:22;11.03;;;10.03;;
19193;SDS011;9729;52.296;13.260;2023-08-06T07:47:48;11.20;;;10.13;;
19193;SDS011;9729;52.296;13.260;2023-08-06T07:50:16;14.23;;;10.83;;
19193;SDS011;9729;52.296;13.260;2023-08-06T07:52:42;10.77;;;9.67;;
19193;SDS011;9729;52.296;13.260;2023-08-06T07:55:10;11.33;;;10.27;;
19193;SDS011;9729;52.296;13.260;2023-08-06T07:57:36;12.13;;;9.97;;
19193;SDS011;9729;52.296;13.260;2023-08-06T08:00:03;12.70;;;9.60;;
19193;SDS011;9729;52.296;13.260;2023-08-06T08:02:31;11.27;;;9.90;;
19193;SDS011;9729;52.296;13.260;2023-08-06T08:04:57;9.40;;;8.37;;
19193;SDS011;9729;52.296;13.260;2023-08-06T08:07:23;9.60;;;8.57;;
19193;SDS011;9729;52.296;13.260;2023-08-06T08:09:52;8.83;;;7.93;;
19193;SDS011;9729;52.296;13.260;2023-08-06T08:12:20;10.87;;;9.10;;
19193;SDS011;9729;52.296;13.260;2023-08-06T08:14:46;9.47;;;8.57;;
19193;SDS011;9729;52.296;13.260;2023-08-06T08:17:13;9.73;;;8.73;;
19193;SDS011;9729;52.296;13.260;2023-08-06T08:19:39;10.27;;;9.27;;
19193;SDS011;9729;52.296;13.260;2023-08-06T08:22:05;9.30;;;8.40;;
19193;SDS011;9729;52.296;13.260;2023-08-06T08:24:32;10.50;;;9.00;;
19193;SDS011;9729;52.296;13.260;2023-08-06T08:26:58;9.63;;;8.30;;
19193;SDS011;9729;52.296;13.260;2023-08-06T08:29:26;10.17;;;9.17;;
19193;SDS011;9729;52.296;13.260;2023-08-06T08:31:53;9.83;;;8.93;;
19193;SDS011;9729;52.296;13.260;2023-08-06T08:34:19;8.90;;;8.00;;
19193;SDS011;9729;52.296;13.260;2023-08-06T08:36:46;8.43;;;7.53;;
19193;SDS011;9729;52.296;13.260;2023-08-06T08:39:12;10.40;;;9.50;;
19193;SDS011;9729;52.296;13.260;2023-08-06T08:41:39;12.53;;;8.83;;
19193;SDS011;9729;52.296;13.260;2023-08-06T08:44:07;10.10;;;9.03;;
19193;SDS011;9729;52.296;13.260;2023-08-06T08:46:36;9.50;;;8.63;;
19193;SDS011;9729;52.296;13.260;2023-08-06T08:49:04;9.10;;;8.30;;
19193;SDS011;9729;52.296;13.260;2023-08-06T08:51:31;9.53;;;8.57;;
19193;SDS011;9729;52.296;13.260;2023-08-06T08:53:59;9.07;;;7.70;;
19193;SDS011;9729;52.296;13.260;2023-08-06T08:56:25;9.43;;;8.43;;
19193;SDS011;9729;52.296;13.260;2023-08-06T08:58:51;12.33;;;9.33;;
19193;SDS011;9729;52.296;13.260;2023-08-06T09:01:20;10.23;;;9.23;;
19193;SDS011;9729;52.296;13.260;2023-08-06T09:03:49;10.20;;;9.20;;
19193;SDS011;9729;52.296;13.260;2023-08-06T09:06:16;12.13;;;9.93;;
19193;SDS011;9729;52.296;13.260;2023-08-06T09:08:46;10.57;;;9.47;;
19193;SDS011;9729;52.296;13.260;2023-08-06T09:11:14;10.70;;;9.63;;
19193;SDS011;9729;52.296;13.260;2023-08-06T09:13:40;10.80;;;9.80;;
19193;SDS011;9729;52.296;13.260;2023-08-06T09:16:07;10.30;;;9.30;;
19193;SDS011;9729;52.296;13.260;2023-08-06T09:18:33;10.23;;;9.30;;
19193;SDS011;9729;52.296;13.260;2023-08-06T09:21:01;11.13;;;9.97;;
19193;SDS011;9729;52.296;13.260;2023-08-06T09:23:28;11.03;;;9.60;;
19193;SDS011;9729;52.296;13.260;2023-08-06T09:25:55;10.77;;;9.77;;
19193;SDS011;9729;52.296;13.260;2023-08-06T09:28:22;11.00;;;9.90;;
19193;SDS011;9729;52.296;13.260;2023-08-06T09:30:49;11.17;;;9.97;;
19193;SDS011;9729;52.296;13.260;2023-08-06T09:33:17;11.57;;;10.30;;
19193;SDS011;9729;52.296;13.260;2023-08-06T09:35:45;11.43;;;10.27;;
19193;SDS011;9729;52.296;13.260;2023-08-06T09:38:13;10.00;;;9.10;;
19193;SDS011;9729;52.296;13.260;2023-08-06T09:40:40;10.20;;;9.30;;
19193;SDS011;9729;52.296;13.260;2023-08-06T09:43:06;11.03;;;9.93;;
19193;SDS011;9729;52.296;13.260;2023-08-06T09:45:33;10.87;;;9.77;;
19193;SDS011;9729;52.296;13.260;2023-08-06T09:48:02;9.70;;;8.73;;
19193;SDS011;9729;52.296;13.260;2023-08-06T09:50:29;9.97;;;8.97;;
19193;SDS011;9729;52.296;13.260;2023-08-06T09:52:56;12.17;;;8.63;;
19193;SDS011;9729;52.296;13.260;2023-08-06T09:55:25;11.23;;;9.80;;
19193;SDS011;9729;52.296;13.260;2023-08-06T09:57:53;12.47;;;9.17;;
19193;SDS011;9729;52.296;13.260;2023-08-06T10:00:20;8.77;;;7.97;;
19193;SDS011;9729;52.296;13.260;2023-08-06T10:02:47;8.93;;;8.03;;
19193;SDS011;9729;52.296;13.260;2023-08-06T10:05:16;11.07;;;7.80;;
19193;SDS011;9729;52.296;13.260;2023-08-06T10:07:43;9.33;;;8.43;;
19193;SDS011;9729;52.296;13.260;2023-08-06T10:10:10;8.80;;;8.00;;
19193;SDS011;9729;52.296;13.260;2023-08-06T10:12:39;8.63;;;7.90;;
19193;SDS011;9729;52.296;13.260;2023-08-06T10:15:08;8.93;;;8.03;;
19193;SDS011;9729;52.296;13.260;2023-08-06T10:17:36;9.37;;;8.47;;
19193;SDS011;9729;52.296;13.260;2023-08-06T10:20:03;8.97;;;8.17;;
19193;SDS011;9729;52.296;13.260;2023-08-06T10:22:31;8.73;;;7.93;;
19193;SDS011;9729;52.296;13.260;2023-08-06T10:24:59;8.47;;;7.57;;
19193;SDS011;9729;52.296;13.260;2023-08-06T10:27:29;8.23;;;7.50;;
19193;SDS011;9729;52.296;13.260;2023-08-06T10:32:48;9.87;;;7.87;;
19193;SDS011;9729;52.296;13.260;2023-08-06T10:35:27;8.50;;;7.77;;
19193;SDS011;9729;52.296;13.260;2023-08-06T10:37:57;10.87;;;8.90;;
19193;SDS011;9729;52.296;13.260;2023-08-06T10:40:24;10.20;;;9.20;;
19193;SDS011;9729;52.296;13.260;2023-08-06T10:42:51;9.23;;;8.33;;
19193;SDS011;9729;52.296;13.260;2023-08-06T10:45:17;9.40;;;8.40;;
19193;SDS011;9729;52.296;13.260;2023-08-06T10:47:46;10.03;;;9.03;;
19193;SDS011;9729;52.296;13.260;2023-08-06T10:50:12;9.87;;;8.97;;
19193;SDS011;9729;52.296;13.260;2023-08-06T10:52:41;12.57;;;9.87;;
19193;SDS011;9729;52.296;13.260;2023-08-06T10:55:08;10.63;;;9.17;;
19193;SDS011;9729;52.296;13.260;2023-08-06T10:57:35;10.13;;;9.23;;
19193;SDS011;9729;52.296;13.260;2023-08-06T11:00:03;11.80;;;9.03;;
19193;SDS011;9729;52.296;13.260;2023-08-06T11:02:32;9.67;;;8.77;;
19193;SDS011;9729;52.296;13.260;2023-08-06T11:05:05;10.53;;;9.47;;
19193;SDS011;9729;52.296;13.260;2023-08-06T11:07:32;9.87;;;8.93;;
19193;SDS011;9729;52.296;13.260;2023-08-06T11:10:03;10.40;;;9.33;;
19193;SDS011;9729;52.296;13.260;2023-08-06T11:12:30;9.23;;;8.43;;
19193;SDS011;9729;52.296;13.260;2023-08-06T11:14:56;10.20;;;8.87;;
19193;SDS011;9729;52.296;13.260;2023-08-06T11:17:23;10.40;;;9.30;;
19193;SDS011;9729;52.296;13.260;2023-08-06T11:19:49;9.70;;;8.80;;
19193;SDS011;9729;52.296;13.260;2023-08-06T11:22:17;9.53;;;8.63;;
19193;SDS011;9729;52.296;13.260;2023-08-06T11:24:44;10.30;;;9.20;;
19193;SDS011;9729;52.296;13.260;2023-08-06T11:27:13;9.73;;;8.83;;
19193;SDS011;9729;52.296;13.260;2023-08-06T11:29:40;11.43;;;8.97;;
19193;SDS011;9729;52.296;13.260;2023-08-06T11:32:06;10.47;;;9.03;;
19193;SDS011;9729;52.296;13.260;2023-08-06T11:34:33;10.20;;;9.17;;
19193;SDS011;9729;52.296;13.260;2023-08-06T11:36:59;8.93;;;8.03;;
19193;SDS011;9729;52.296;13.260;2023-08-06T11:39:27;9.57;;;8.77;;
19193;SDS011;9729;52.296;13.260;2023-08-06T11:41:54;9.10;;;8.30;;
19193;SDS011;9729;52.296;13.260;2023-08-06T11:44:21;9.57;;;8.67;;
19193;SDS011;9729;52.296;13.260;2023-08-06T11:46:50;10.20;;;8.90;;
19193;SDS011;9729;52.296;13.260;2023-08-06T11:49:17;8.87;;;8.07;;
19193;SDS011;9729;52.296;13.260;2023-08-06T11:51:46;9.80;;;8.57;;
19193;SDS011;9729;52.296;13.260;2023-08-06T11:54:13;10.03;;;8.97;;
19193;SDS011;9729;52.296;13.260;2023-08-06T11:56:41;10.00;;;9.10;;
19193;SDS011;9729;52.296;13.260;2023-08-06T11:59:08;10.37;;;9.30;;
19193;SDS011;9729;52.296;13.260;2023-08-06T12:01:35;9.70;;;8.67;;
19193;SDS011;9729;52.296;13.260;2023-08-06T12:04:01;9.87;;;8.87;;
19193;SDS011;9729;52.296;13.260;2023-08-06T12:06:30;9.37;;;8.43;;
19193;SDS011;9729;52.296;13.260;2023-08-06T12:08:56;8.47;;;7.63;;
19193;SDS011;9729;52.296;13.260;2023-08-06T12:11:23;8.00;;;7.37;;
19193;SDS011;9729;52.296;13.260;2023-08-06T12:13:51;9.23;;;8.33;;
19193;SDS011;9729;52.296;13.260;2023-08-06T12:16:18;9.67;;;8.47;;
19193;SDS011;9729;52.296;13.260;2023-08-06T12:18:46;9.17;;;8.27;;
19193;SDS011;9729;52.296;13.260;2023-08-06T12:21:13;8.40;;;7.60;;
19193;SDS011;9729;52.296;13.260;2023-08-06T12:23:40;9.03;;;7.67;;
19193;SDS011;9729;52.296;13.260;2023-08-06T12:26:07;9.20;;;7.17;;
19193;SDS011;9729;52.296;13.260;2023-08-06T12:28:33;7.27;;;6.57;;
19193;SDS011;9729;52.296;13.260;2023-08-06T12:31:01;7.00;;;6.30;;
19193;SDS011;9729;52.296;13.260;2023-08-06T12:33:27;7.90;;;7.20;;
19193;SDS011;9729;52.296;13.260;2023-08-06T12:35:53;6.97;;;6.37;;
19193;SDS011;9729;52.296;13.260;2023-08-06T12:38:20;7.40;;;6.70;;
19193;SDS011;9729;52.296;13.260;2023-08-06T12:40:46;7.53;;;6.93;;
19193;SDS011;9729;52.296;13.260;2023-08-06T12:43:13;8.33;;;7.43;;
19193;SDS011;9729;52.296;13.260;2023-08-06T12:45:39;7.87;;;7.07;;
19193;SDS011;9729;52.296;13.260;2023-08-06T12:48:07;7.13;;;6.60;;
19193;SDS011;9729;52.296;13.260;2023-08-06T12:50:33;7.27;;;6.67;;
19193;SDS011;9729;52.296;13.260;2023-08-06T12:52:59;7.93;;;6.97;;
19193;SDS011;9729;52.296;13.260;2023-08-06T12:55:26;7.43;;;6.80;;
19193;SDS011;9729;52.296;13.260;2023-08-06T12:57:52;8.07;;;7.27;;
19193;SDS011;9729;52.296;13.260;2023-08-06T13:00:18;8.77;;;7.13;;
19193;SDS011;9729;52.296;13.260;2023-08-06T13:02:45;8.17;;;6.93;;
19193;SDS011;9729;52.296;13.260;2023-08-06T13:05:13;8.53;;;7.70;;
19193;SDS011;9729;52.296;13.260;2023-08-06T13:07:39;7.70;;;7.00;;
19193;SDS011;9729;52.296;13.260;2023-08-06T13:10:06;7.77;;;6.60;;
19193;SDS011;9729;52.296;13.260;2023-08-06T13:12:33;7.53;;;6.83;;
19193;SDS011;9729;52.296;13.260;2023-08-06T13:14:59;7.63;;;6.73;;
19193;SDS011;9729;52.296;13.260;2023-08-06T13:17:25;7.70;;;6.80;;
19193;SDS011;9729;52.296;13.260;2023-08-06T13:19:52;8.20;;;7.40;;
19193;SDS011;9729;52.296;13.260;2023-08-06T13:22:20;8.00;;;7.00;;
19193;SDS011;9729;52.296;13.260;2023-08-06T13:24:46;7.90;;;7.10;;
19193;SDS011;9729;52.296;13.260;2023-08-06T13:27:12;8.47;;;7.67;;
19193;SDS011;9729;52.296;13.260;2023-08-06T13:29:39;7.90;;;7.17;;
19193;SDS011;9729;52.296;13.260;2023-08-06T13:32:05;9.23;;;7.90;;
19193;SDS011;9729;52.296;13.260;2023-08-06T13:34:32;8.90;;;8.00;;
19193;SDS011;9729;52.296;13.260;2023-08-06T13:36:58;10.00;;;9.00;;
19193;SDS011;9729;52.296;13.260;2023-08-06T13:39:26;10.13;;;9.10;;
19193;SDS011;9729;52.296;13.260;2023-08-06T13:41:52;4.03;;;3.63;;
19193;SDS011;9729;52.296;13.260;2023-08-06T13:44:19;4.23;;;3.83;;
19193;SDS011;9729;52.296;13.260;2023-08-06T13:46:45;3.57;;;2.90;;
19193;SDS011;9729;52.296;13.260;2023-08-06T13:49:11;3.43;;;3.13;;
19193;SDS011;9729;52.296;13.260;2023-08-06T13:51:38;22.17;;;3.93;;
19193;SDS011;9729;52.296;13.260;2023-08-06T13:54:04;7.10;;;3.40;;
19193;SDS011;9729;52.296;13.260;2023-08-06T13:56:34;4.30;;;3.90;;
19193;SDS011;9729;52.296;13.260;2023-08-06T13:59:02;6.03;;;4.00;;
19193;SDS011;9729;52.296;13.260;2023-08-06T14:01:29;8.30;;;5.33;;
19193;SDS011;9729;52.296;13.260;2023-08-06T14:03:55;6.30;;;4.33;;
19193;SDS011;9729;52.296;13.260;2023-08-06T14:06:21;8.80;;;4.20;;
19193;SDS011;9729;52.296;13.260;2023-08-06T14:08:48;5.27;;;4.30;;
19193;SDS011;9729;52.296;13.260;2023-08-06T14:11:14;4.90;;;4.50;;
19193;SDS011;9729;52.296;13.260;2023-08-06T14:13:42;4.87;;;4.00;;
19193;SDS011;9729;52.296;13.260;2023-08-06T14:16:08;5.23;;;4.30;;
19193;SDS011;9729;52.296;13.260;2023-08-06T14:18:34;4.87;;;4.40;;
19193;SDS011;9729;52.296;13.260;2023-08-06T14:21:03;4.43;;;4.03;;
19193;SDS011;9729;52.296;13.260;2023-08-06T14:23:29;8.40;;;4.93;;
19193;SDS011;9729;52.296;13.260;2023-08-06T14:25:56;7.43;;;5.53;;
19193;SDS011;9729;52.296;13.260;2023-08-06T14:28:22;6.67;;;4.73;;
19193;SDS011;9729;52.296;13.260;2023-08-06T14:30:50;6.57;;;5.80;;
19193;SDS011;9729;52.296;13.260;2023-08-06T14:33:16;7.77;;;5.60;;